sensor_id;sensor_type;location;lat;lon;timestamp;temperature;humidity
67192;HTU21D;54120;53.504;49.426;2023-07-13T00:02:04;14.82;81.07
67192;HTU21D;54120;53.504;49.426;2023-07-13T00:04:31;14.95;80.63
67192;HTU21D;54120;53.504;49.426;2023-07-13T00:06:57;15.04;80.69
67192;HTU21D;54120;53.504;49.426;2023-07-13T00:09:23;15.19;79.94
67192;HTU21D;54120;53.504;49.426;2023-07-13T00:11:52;15.25;79.75
67192;HTU21D;54120;53.504;49.426;2023-07-13T00:14:19;15.25;79.37
67192;HTU21D;54120;53.504;49.426;2023-07-13T00:16:45;15.28;79.22
67192;HTU21D;54120;53.504;49.426;2023-07-13T00:19:13;15.32;79.36
67192;HTU21D;54120;53.504;49.426;2023-07-13T00:21:41;15.36;79.05
67192;HTU21D;54120;53.504;49.426;2023-07-13T00:24:11;15.30;79.11
67192;HTU21D;54120;53.504;49.426;2023-07-13T00:26:41;15.18;79.49
67192;HTU21D;54120;53.504;49.426;2023-07-13T00:29:12;15.09;79.84
67192;HTU21D;54120;53.504;49.426;2023-07-13T00:31:38;14.99;80.51
67192;HTU21D;54120;53.504;49.426;2023-07-13T00:34:05;14.96;80.78
67192;HTU21D;54120;53.504;49.426;2023-07-13T00:36:31;14.84;81.10
67192;HTU21D;54120;53.504;49.426;2023-07-13T00:38:58;14.75;81.76
67192;HTU21D;54120;53.504;49.426;2023-07-13T00:41:25;14.71;82.10
67192;HTU21D;54120;53.504;49.426;2023-07-13T00:43:52;14.74;81.87
67192;HTU21D;54120;53.504;49.426;2023-07-13T00:46:24;14.64;82.54
67192;HTU21D;54120;53.504;49.426;2023-07-13T00:48:52;14.66;82.66
67192;HTU21D;54120;53.504;49.426;2023-07-13T00:51:24;14.74;81.98
67192;HTU21D;54120;53.504;49.426;2023-07-13T00:53:53;14.81;81.68
67192;HTU21D;54120;53.504;49.426;2023-07-13T00:56:20;14.93;81.23
67192;HTU21D;54120;53.504;49.426;2023-07-13T00:58:47;15.09;80.58
67192;HTU21D;54120;53.504;49.426;2023-07-13T01:01:13;15.29;79.59
67192;HTU21D;54120;53.504;49.426;2023-07-13T01:03:41;15.54;78.71
67192;HTU21D;54120;53.504;49.426;2023-07-13T01:06:08;15.73;77.72
67192;HTU21D;54120;53.504;49.426;2023-07-13T01:08:35;15.89;76.73
67192;HTU21D;54120;53.504;49.426;2023-07-13T01:11:01;15.98;76.71
67192;HTU21D;54120;53.504;49.426;2023-07-13T01:13:27;17.47;70.90
67192;HTU21D;54120;53.504;49.426;2023-07-13T01:15:57;17.67;69.37
67192;HTU21D;54120;53.504;49.426;2023-07-13T01:18:26;16.82;72.99
67192;HTU21D;54120;53.504;49.426;2023-07-13T01:20:59;16.41;75.02
67192;HTU21D;54120;53.504;49.426;2023-07-13T01:23:26;16.58;74.94
67192;HTU21D;54120;53.504;49.426;2023-07-13T01:25:53;16.48;75.25
67192;HTU21D;54120;53.504;49.426;2023-07-13T01:28:22;16.44;75.78
67192;HTU21D;54120;53.504;49.426;2023-07-13T01:30:48;16.36;76.55
67192;HTU21D;54120;53.504;49.426;2023-07-13T01:33:17;16.33;76.89
67192;HTU21D;54120;53.504;49.426;2023-07-13T01:35:45;16.26;77.63
67192;HTU21D;54120;53.504;49.426;2023-07-13T01:38:17;16.27;77.39
67192;HTU21D;54120;53.504;49.426;2023-07-13T01:40:44;16.30;77.32
67192;HTU21D;54120;53.504;49.426;2023-07-13T01:43:10;16.33;77.07
67192;HTU21D;54120;53.504;49.426;2023-07-13T01:45:37;16.41;77.48
67192;HTU21D;54120;53.504;49.426;2023-07-13T01:48:03;16.34;76.46
67192;HTU21D;54120;53.504;49.426;2023-07-13T01:50:29;16.28;77.02
67192;HTU21D;54120;53.504;49.426;2023-07-13T01:52:56;16.22;77.41
67192;HTU21D;54120;53.504;49.426;2023-07-13T01:55:23;16.27;76.44
67192;HTU21D;54120;53.504;49.426;2023-07-13T01:57:49;16.36;75.47
67192;HTU21D;54120;53.504;49.426;2023-07-13T02:00:16;16.57;74.94
67192;HTU21D;54120;53.504;49.426;2023-07-13T02:02:43;16.51;74.02
67192;HTU21D;54120;53.504;49.426;2023-07-13T02:05:11;16.50;74.38
67192;HTU21D;54120;53.504;49.426;2023-07-13T02:07:38;16.49;73.51
67192;HTU21D;54120;53.504;49.426;2023-07-13T02:10:06;16.43;74.39
67192;HTU21D;54120;53.504;49.426;2023-07-13T02:12:33;16.42;73.15
67192;HTU21D;54120;53.504;49.426;2023-07-13T02:14:59;16.36;72.77
67192;HTU21D;54120;53.504;49.426;2023-07-13T02:17:26;16.34;73.54
67192;HTU21D;54120;53.504;49.426;2023-07-13T02:19:53;16.36;72.77
67192;HTU21D;54120;53.504;49.426;2023-07-13T02:22:21;16.42;72.70
67192;HTU21D;54120;53.504;49.426;2023-07-13T02:24:48;16.43;72.70
67192;HTU21D;54120;53.504;49.426;2023-07-13T02:27:14;16.46;72.67
67192;HTU21D;54120;53.504;49.426;2023-07-13T02:29:40;16.47;72.41
67192;HTU21D;54120;53.504;49.426;2023-07-13T02:32:07;16.47;71.84
67192;HTU21D;54120;53.504;49.426;2023-07-13T02:34:34;16.47;72.53
67192;HTU21D;54120;53.504;49.426;2023-07-13T02:37:00;16.41;73.74
67192;HTU21D;54120;53.504;49.426;2023-07-13T02:39:26;16.50;73.80
67192;HTU21D;54120;53.504;49.426;2023-07-13T02:41:53;16.57;73.74
67192;HTU21D;54120;53.504;49.426;2023-07-13T02:44:20;16.59;74.18
67192;HTU21D;54120;53.504;49.426;2023-07-13T02:46:46;16.63;74.25
67192;HTU21D;54120;53.504;49.426;2023-07-13T02:49:13;16.67;74.51
67192;HTU21D;54120;53.504;49.426;2023-07-13T02:51:40;16.67;74.37
67192;HTU21D;54120;53.504;49.426;2023-07-13T02:54:07;16.63;74.94
67192;HTU21D;54120;53.504;49.426;2023-07-13T02:56:35;16.65;75.84
67192;HTU21D;54120;53.504;49.426;2023-07-13T02:59:01;16.72;75.56
67192;HTU21D;54120;53.504;49.426;2023-07-13T03:01:29;16.71;75.18
67192;HTU21D;54120;53.504;49.426;2023-07-13T03:03:56;16.74;75.31
67192;HTU21D;54120;53.504;49.426;2023-07-13T03:06:22;16.76;74.92
67192;HTU21D;54120;53.504;49.426;2023-07-13T03:08:50;16.75;74.58
67192;HTU21D;54120;53.504;49.426;2023-07-13T03:11:19;16.80;75.09
67192;HTU21D;54120;53.504;49.426;2023-07-13T03:13:45;16.76;75.59
67192;HTU21D;54120;53.504;49.426;2023-07-13T03:16:13;16.73;76.22
67192;HTU21D;54120;53.504;49.426;2023-07-13T03:18:42;16.70;77.13
67192;HTU21D;54120;53.504;49.426;2023-07-13T03:21:09;16.63;77.00
67192;HTU21D;54120;53.504;49.426;2023-07-13T03:23:35;16.70;77.17
67192;HTU21D;54120;53.504;49.426;2023-07-13T03:26:06;16.75;76.76
67192;HTU21D;54120;53.504;49.426;2023-07-13T03:28:34;16.82;77.15
67192;HTU21D;54120;53.504;49.426;2023-07-13T03:31:12;16.92;76.52
67192;HTU21D;54120;53.504;49.426;2023-07-13T03:33:39;16.94;76.25
67192;HTU21D;54120;53.504;49.426;2023-07-13T03:36:07;16.88;76.41
67192;HTU21D;54120;53.504;49.426;2023-07-13T03:38:34;16.85;76.55
67192;HTU21D;54120;53.504;49.426;2023-07-13T03:41:01;16.84;77.42
67192;HTU21D;54120;53.504;49.426;2023-07-13T03:43:27;16.70;77.93
67192;HTU21D;54120;53.504;49.426;2023-07-13T03:45:53;16.64;78.16
67192;HTU21D;54120;53.504;49.426;2023-07-13T03:48:20;16.60;78.01
67192;HTU21D;54120;53.504;49.426;2023-07-13T03:50:47;16.64;78.52
67192;HTU21D;54120;53.504;49.426;2023-07-13T03:53:15;16.63;78.10
67192;HTU21D;54120;53.504;49.426;2023-07-13T03:55:42;16.72;78.20
67192;HTU21D;54120;53.504;49.426;2023-07-13T03:58:35;16.79;77.97
67192;HTU21D;54120;53.504;49.426;2023-07-13T04:01:04;16.72;78.68
67192;HTU21D;54120;53.504;49.426;2023-07-13T04:03:32;16.93;78.37
67192;HTU21D;54120;53.504;49.426;2023-07-13T04:06:00;17.08;77.58
67192;HTU21D;54120;53.504;49.426;2023-07-13T04:08:28;17.13;77.64
67192;HTU21D;54120;53.504;49.426;2023-07-13T04:10:56;17.30;76.91
67192;HTU21D;54120;53.504;49.426;2023-07-13T04:13:23;17.50;76.38
67192;HTU21D;54120;53.504;49.426;2023-07-13T04:15:51;17.62;75.33
67192;HTU21D;54120;53.504;49.426;2023-07-13T04:18:18;17.75;74.67
67192;HTU21D;54120;53.504;49.426;2023-07-13T04:20:49;17.99;74.66
67192;HTU21D;54120;53.504;49.426;2023-07-13T04:23:16;18.15;73.86
67192;HTU21D;54120;53.504;49.426;2023-07-13T04:25:44;18.21;73.92
67192;HTU21D;54120;53.504;49.426;2023-07-13T04:28:11;18.24;73.77
67192;HTU21D;54120;53.504;49.426;2023-07-13T04:30:38;18.18;73.67
67192;HTU21D;54120;53.504;49.426;2023-07-13T04:33:05;18.12;73.38
67192;HTU21D;54120;53.504;49.426;2023-07-13T04:35:35;18.08;73.72
67192;HTU21D;54120;53.504;49.426;2023-07-13T04:38:01;17.96;73.41
67192;HTU21D;54120;53.504;49.426;2023-07-13T04:40:29;18.11;73.31
67192;HTU21D;54120;53.504;49.426;2023-07-13T04:42:55;18.42;71.93
67192;HTU21D;54120;53.504;49.426;2023-07-13T04:45:22;18.55;71.11
67192;HTU21D;54120;53.504;49.426;2023-07-13T04:47:51;18.76;70.62
67192;HTU21D;54120;53.504;49.426;2023-07-13T04:50:18;19.07;69.90
67192;HTU21D;54120;53.504;49.426;2023-07-13T04:52:50;19.66;67.38
67192;HTU21D;54120;53.504;49.426;2023-07-13T04:55:18;23.46;55.22
67192;HTU21D;54120;53.504;49.426;2023-07-13T04:57:45;27.91;42.22
67192;HTU21D;54120;53.504;49.426;2023-07-13T05:00:13;26.25;45.25
67192;HTU21D;54120;53.504;49.426;2023-07-13T05:02:45;23.61;53.06
67192;HTU21D;54120;53.504;49.426;2023-07-13T05:05:12;22.80;56.29
67192;HTU21D;54120;53.504;49.426;2023-07-13T05:07:39;25.49;48.12
67192;HTU21D;54120;53.504;49.426;2023-07-13T05:10:06;27.42;43.16
67192;HTU21D;54120;53.504;49.426;2023-07-13T05:12:32;26.13;45.45
67192;HTU21D;54120;53.504;49.426;2023-07-13T05:14:58;25.19;47.67
67192;HTU21D;54120;53.504;49.426;2023-07-13T05:17:25;26.89;42.68
67192;HTU21D;54120;53.504;49.426;2023-07-13T05:19:52;26.73;43.74
67192;HTU21D;54120;53.504;49.426;2023-07-13T05:22:18;25.34;47.18
67192;HTU21D;54120;53.504;49.426;2023-07-13T05:24:45;23.70;52.13
67192;HTU21D;54120;53.504;49.426;2023-07-13T05:27:12;22.67;55.65
67192;HTU21D;54120;53.504;49.426;2023-07-13T05:29:38;22.58;55.90
67192;HTU21D;54120;53.504;49.426;2023-07-13T05:32:05;21.97;58.36
67192;HTU21D;54120;53.504;49.426;2023-07-13T05:34:31;21.27;61.32
67192;HTU21D;54120;53.504;49.426;2023-07-13T05:36:58;20.76;63.87
67192;HTU21D;54120;53.504;49.426;2023-07-13T05:39:24;20.25;66.18
67192;HTU21D;54120;53.504;49.426;2023-07-13T05:41:52;19.76;68.26
67192;HTU21D;54120;53.504;49.426;2023-07-13T05:44:18;19.65;69.20
67192;HTU21D;54120;53.504;49.426;2023-07-13T05:46:45;19.80;69.39
67192;HTU21D;54120;53.504;49.426;2023-07-13T05:49:11;20.17;67.74
67192;HTU21D;54120;53.504;49.426;2023-07-13T05:51:38;20.54;65.27
67192;HTU21D;54120;53.504;49.426;2023-07-13T05:54:05;20.88;63.29
67192;HTU21D;54120;53.504;49.426;2023-07-13T05:56:31;21.11;63.12
67192;HTU21D;54120;53.504;49.426;2023-07-13T05:58:57;20.98;63.91
67192;HTU21D;54120;53.504;49.426;2023-07-13T06:01:23;20.87;63.53
67192;HTU21D;54120;53.504;49.426;2023-07-13T06:03:51;20.83;61.41
67192;HTU21D;54120;53.504;49.426;2023-07-13T06:06:17;20.68;60.47
67192;HTU21D;54120;53.504;49.426;2023-07-13T06:08:43;20.98;60.51
67192;HTU21D;54120;53.504;49.426;2023-07-13T06:13:39;21.31;59.44
67192;HTU21D;54120;53.504;49.426;2023-07-13T06:16:07;21.88;57.62
67192;HTU21D;54120;53.504;49.426;2023-07-13T06:18:36;21.84;58.17
67192;HTU21D;54120;53.504;49.426;2023-07-13T06:21:12;21.80;59.30
67192;HTU21D;54120;53.504;49.426;2023-07-13T06:23:39;21.52;60.54
67192;HTU21D;54120;53.504;49.426;2023-07-13T06:26:05;21.32;61.58
67192;HTU21D;54120;53.504;49.426;2023-07-13T06:28:33;21.21;61.15
67192;HTU21D;54120;53.504;49.426;2023-07-13T06:31:00;21.14;60.89
67192;HTU21D;54120;53.504;49.426;2023-07-13T06:33:27;21.03;61.04
67192;HTU21D;54120;53.504;49.426;2023-07-13T06:35:53;21.08;61.28
67192;HTU21D;54120;53.504;49.426;2023-07-13T06:38:21;21.27;60.78
67192;HTU21D;54120;53.504;49.426;2023-07-13T06:40:47;21.46;60.59
67192;HTU21D;54120;53.504;49.426;2023-07-13T06:43:14;21.67;60.02
67192;HTU21D;54120;53.504;49.426;2023-07-13T06:45:44;21.47;60.72
67192;HTU21D;54120;53.504;49.426;2023-07-13T06:48:11;21.38;61.36
67192;HTU21D;54120;53.504;49.426;2023-07-13T06:50:38;21.54;61.68
67192;HTU21D;54120;53.504;49.426;2023-07-13T06:53:05;21.85;60.25
67192;HTU21D;54120;53.504;49.426;2023-07-13T06:55:31;22.16;59.54
67192;HTU21D;54120;53.504;49.426;2023-07-13T06:57:57;22.40;57.68
67192;HTU21D;54120;53.504;49.426;2023-07-13T07:00:24;23.26;55.07
67192;HTU21D;54120;53.504;49.426;2023-07-13T07:02:50;24.09;51.47
67192;HTU21D;54120;53.504;49.426;2023-07-13T07:05:19;24.48;51.43
67192;HTU21D;54120;53.504;49.426;2023-07-13T07:07:51;25.62;48.46
67192;HTU21D;54120;53.504;49.426;2023-07-13T07:10:18;25.68;46.86
67192;HTU21D;54120;53.504;49.426;2023-07-13T07:12:45;25.10;48.05
67192;HTU21D;54120;53.504;49.426;2023-07-13T07:15:12;25.35;48.05
67192;HTU21D;54120;53.504;49.426;2023-07-13T07:17:38;27.08;43.45
67192;HTU21D;54120;53.504;49.426;2023-07-13T07:20:05;28.05;40.92
67192;HTU21D;54120;53.504;49.426;2023-07-13T07:22:33;28.74;39.17
67192;HTU21D;54120;53.504;49.426;2023-07-13T07:24:59;28.17;38.58
67192;HTU21D;54120;53.504;49.426;2023-07-13T07:27:26;26.83;41.48
67192;HTU21D;54120;53.504;49.426;2023-07-13T07:29:52;26.38;42.50
67192;HTU21D;54120;53.504;49.426;2023-07-13T07:32:19;25.68;44.59
67192;HTU21D;54120;53.504;49.426;2023-07-13T07:34:46;24.84;46.74
67192;HTU21D;54120;53.504;49.426;2023-07-13T07:37:13;24.16;46.97
67192;HTU21D;54120;53.504;49.426;2023-07-13T07:39:40;23.71;49.18
67192;HTU21D;54120;53.504;49.426;2023-07-13T07:42:07;23.65;50.49
67192;HTU21D;54120;53.504;49.426;2023-07-13T07:44:33;23.30;51.22
67192;HTU21D;54120;53.504;49.426;2023-07-13T07:47:00;23.05;52.74
67192;HTU21D;54120;53.504;49.426;2023-07-13T07:49:27;22.92;52.96
67192;HTU21D;54120;53.504;49.426;2023-07-13T07:51:54;22.41;54.17
67192;HTU21D;54120;53.504;49.426;2023-07-13T07:54:20;22.53;53.91
67192;HTU21D;54120;53.504;49.426;2023-07-13T07:56:47;22.39;54.25
67192;HTU21D;54120;53.504;49.426;2023-07-13T07:59:13;22.56;53.82
67192;HTU21D;54120;53.504;49.426;2023-07-13T08:01:39;22.76;52.36
67192;HTU21D;54120;53.504;49.426;2023-07-13T08:04:06;22.92;49.26
67192;HTU21D;54120;53.504;49.426;2023-07-13T08:06:33;23.08;50.21
67192;HTU21D;54120;53.504;49.426;2023-07-13T08:09:00;23.28;49.36
67192;HTU21D;54120;53.504;49.426;2023-07-13T08:11:27;23.35;48.60
67192;HTU21D;54120;53.504;49.426;2023-07-13T08:13:53;23.44;47.86
67192;HTU21D;54120;53.504;49.426;2023-07-13T08:16:19;24.09;46.93
67192;HTU21D;54120;53.504;49.426;2023-07-13T08:18:46;24.56;46.04
67192;HTU21D;54120;53.504;49.426;2023-07-13T08:21:12;24.74;45.55
67192;HTU21D;54120;53.504;49.426;2023-07-13T08:23:38;24.77;45.35
67192;HTU21D;54120;53.504;49.426;2023-07-13T08:26:04;24.48;46.23
67192;HTU21D;54120;53.504;49.426;2023-07-13T08:28:33;24.92;43.12
67192;HTU21D;54120;53.504;49.426;2023-07-13T08:31:04;25.18;43.08
67192;HTU21D;54120;53.504;49.426;2023-07-13T08:33:31;25.02;44.16
67192;HTU21D;54120;53.504;49.426;2023-07-13T08:35:57;25.15;44.03
67192;HTU21D;54120;53.504;49.426;2023-07-13T08:38:24;25.68;42.93
67192;HTU21D;54120;53.504;49.426;2023-07-13T08:40:53;26.33;42.65
67192;HTU21D;54120;53.504;49.426;2023-07-13T08:43:26;26.84;41.03
67192;HTU21D;54120;53.504;49.426;2023-07-13T08:45:59;26.48;41.79
67192;HTU21D;54120;53.504;49.426;2023-07-13T08:48:51;25.99;43.90
67192;HTU21D;54120;53.504;49.426;2023-07-13T08:54:04;25.18;46.11
67192;HTU21D;54120;53.504;49.426;2023-07-13T08:56:32;25.07;42.93
67192;HTU21D;54120;53.504;49.426;2023-07-13T08:59:20;25.29;42.51
67192;HTU21D;54120;53.504;49.426;2023-07-13T09:04:22;24.02;47.42
67192;HTU21D;54120;53.504;49.426;2023-07-13T09:12:23;24.05;48.44
67192;HTU21D;54120;53.504;49.426;2023-07-13T09:14:53;24.58;46.58
67192;HTU21D;54120;53.504;49.426;2023-07-13T09:17:25;24.39;46.69
67192;HTU21D;54120;53.504;49.426;2023-07-13T09:19:58;24.06;47.18
67192;HTU21D;54120;53.504;49.426;2023-07-13T09:22:27;24.40;46.41
67192;HTU21D;54120;53.504;49.426;2023-07-13T09:28:00;24.70;45.22
67192;HTU21D;54120;53.504;49.426;2023-07-13T09:33:28;25.45;42.00
67192;HTU21D;54120;53.504;49.426;2023-07-13T09:35:57;25.48;41.14
67192;HTU21D;54120;53.504;49.426;2023-07-13T09:38:29;25.77;40.22
67192;HTU21D;54120;53.504;49.426;2023-07-13T09:43:35;25.91;40.55
67192;HTU21D;54120;53.504;49.426;2023-07-13T09:46:02;25.82;40.55
67192;HTU21D;54120;53.504;49.426;2023-07-13T09:48:35;25.86;40.78
67192;HTU21D;54120;53.504;49.426;2023-07-13T09:51:14;25.84;40.00
67192;HTU21D;54120;53.504;49.426;2023-07-13T09:53:42;25.68;40.32
67192;HTU21D;54120;53.504;49.426;2023-07-13T09:56:27;25.68;38.01
67192;HTU21D;54120;53.504;49.426;2023-07-13T09:58:56;25.57;38.83
67192;HTU21D;54120;53.504;49.426;2023-07-13T10:01:37;25.38;38.56
67192;HTU21D;54120;53.504;49.426;2023-07-13T10:04:12;25.09;40.77
67192;HTU21D;54120;53.504;49.426;2023-07-13T10:06:41;25.40;40.84
67192;HTU21D;54120;53.504;49.426;2023-07-13T10:09:10;25.53;39.85
67192;HTU21D;54120;53.504;49.426;2023-07-13T10:11:39;25.22;40.72
67192;HTU21D;54120;53.504;49.426;2023-07-13T10:14:14;24.85;41.42
67192;HTU21D;54120;53.504;49.426;2023-07-13T10:16:43;24.49;42.15
67192;HTU21D;54120;53.504;49.426;2023-07-13T10:21:47;24.25;43.80
67192;HTU21D;54120;53.504;49.426;2023-07-13T10:24:26;24.31;44.69
67192;HTU21D;54120;53.504;49.426;2023-07-13T10:27:09;23.70;47.67
67192;HTU21D;54120;53.504;49.426;2023-07-13T10:29:39;22.47;51.20
67192;HTU21D;54120;53.504;49.426;2023-07-13T10:32:10;21.42;54.11
67192;HTU21D;54120;53.504;49.426;2023-07-13T10:34:37;20.77;56.56
67192;HTU21D;54120;53.504;49.426;2023-07-13T10:37:05;20.48;57.59
67192;HTU21D;54120;53.504;49.426;2023-07-13T10:39:35;20.44;58.13
67192;HTU21D;54120;53.504;49.426;2023-07-13T10:42:06;19.98;62.31
67192;HTU21D;54120;53.504;49.426;2023-07-13T10:44:33;19.15;64.70
67192;HTU21D;54120;53.504;49.426;2023-07-13T10:47:13;18.89;63.81
67192;HTU21D;54120;53.504;49.426;2023-07-13T10:49:42;18.55;66.15
67192;HTU21D;54120;53.504;49.426;2023-07-13T10:52:48;18.38;67.55
67192;HTU21D;54120;53.504;49.426;2023-07-13T10:58:15;18.12;66.82
67192;HTU21D;54120;53.504;49.426;2023-07-13T11:03:47;18.00;68.43
67192;HTU21D;54120;53.504;49.426;2023-07-13T11:11:44;18.18;69.40
67192;HTU21D;54120;53.504;49.426;2023-07-13T11:14:37;18.29;69.25
67192;HTU21D;54120;53.504;49.426;2023-07-13T11:25:40;19.13;67.30
67192;HTU21D;54120;53.504;49.426;2023-07-13T11:30:46;20.21;62.01
67192;HTU21D;54120;53.504;49.426;2023-07-13T11:36:15;21.59;57.37
67192;HTU21D;54120;53.504;49.426;2023-07-13T11:38:44;22.19;55.33
67192;HTU21D;54120;53.504;49.426;2023-07-13T11:41:15;22.55;55.47
67192;HTU21D;54120;53.504;49.426;2023-07-13T11:43:42;23.11;52.73
67192;HTU21D;54120;53.504;49.426;2023-07-13T11:46:14;23.43;50.75
67192;HTU21D;54120;53.504;49.426;2023-07-13T11:48:41;23.07;47.34
67192;HTU21D;54120;53.504;49.426;2023-07-13T11:51:35;22.86;47.35
67192;HTU21D;54120;53.504;49.426;2023-07-13T11:56:59;22.25;51.33
67192;HTU21D;54120;53.504;49.426;2023-07-13T11:59:27;21.68;53.27
67192;HTU21D;54120;53.504;49.426;2023-07-13T12:01:56;20.84;55.35
67192;HTU21D;54120;53.504;49.426;2023-07-13T12:04:26;21.22;55.48
67192;HTU21D;54120;53.504;49.426;2023-07-13T12:07:03;21.81;54.85
67192;HTU21D;54120;53.504;49.426;2023-07-13T12:09:30;22.05;54.22
67192;HTU21D;54120;53.504;49.426;2023-07-13T12:11:57;22.13;51.57
67192;HTU21D;54120;53.504;49.426;2023-07-13T12:14:26;21.46;50.99
67192;HTU21D;54120;53.504;49.426;2023-07-13T12:16:53;21.51;52.65
67192;HTU21D;54120;53.504;49.426;2023-07-13T12:19:23;21.88;52.93
67192;HTU21D;54120;53.504;49.426;2023-07-13T12:21:52;21.93;53.33
67192;HTU21D;54120;53.504;49.426;2023-07-13T12:24:21;21.92;50.71
67192;HTU21D;54120;53.504;49.426;2023-07-13T12:27:03;22.20;49.02
67192;HTU21D;54120;53.504;49.426;2023-07-13T12:29:33;22.01;52.04
67192;HTU21D;54120;53.504;49.426;2023-07-13T12:31:59;22.21;47.87
67192;HTU21D;54120;53.504;49.426;2023-07-13T12:34:26;22.16;45.97
67192;HTU21D;54120;53.504;49.426;2023-07-13T12:36:54;22.25;49.12
67192;HTU21D;54120;53.504;49.426;2023-07-13T12:39:37;22.65;45.69
67192;HTU21D;54120;53.504;49.426;2023-07-13T12:44:56;22.62;47.09
67192;HTU21D;54120;53.504;49.426;2023-07-13T12:47:23;22.82;46.71
67192;HTU21D;54120;53.504;49.426;2023-07-13T12:50:03;23.01;46.44
67192;HTU21D;54120;53.504;49.426;2023-07-13T12:52:34;23.17;44.00
67192;HTU21D;54120;53.504;49.426;2023-07-13T12:55:14;23.31;40.13
67192;HTU21D;54120;53.504;49.426;2023-07-13T12:57:54;23.64;43.51
67192;HTU21D;54120;53.504;49.426;2023-07-13T13:00:31;23.65;43.22
67192;HTU21D;54120;53.504;49.426;2023-07-13T13:05:47;23.37;40.59
67192;HTU21D;54120;53.504;49.426;2023-07-13T13:08:13;23.74;40.07
67192;HTU21D;54120;53.504;49.426;2023-07-13T13:10:40;24.42;39.66
67192;HTU21D;54120;53.504;49.426;2023-07-13T13:13:06;24.58;38.54
67192;HTU21D;54120;53.504;49.426;2023-07-13T13:15:35;24.42;37.12
67192;HTU21D;54120;53.504;49.426;2023-07-13T13:18:10;24.06;37.34
67192;HTU21D;54120;53.504;49.426;2023-07-13T13:20:41;23.83;39.10
67192;HTU21D;54120;53.504;49.426;2023-07-13T13:23:14;24.17;38.74
67192;HTU21D;54120;53.504;49.426;2023-07-13T13:25:45;24.09;38.04
67192;HTU21D;54120;53.504;49.426;2023-07-13T13:28:20;23.85;40.02
67192;HTU21D;54120;53.504;49.426;2023-07-13T13:30:48;23.86;39.68
67192;HTU21D;54120;53.504;49.426;2023-07-13T13:33:17;23.66;40.34
67192;HTU21D;54120;53.504;49.426;2023-07-13T13:35:44;23.54;40.47
67192;HTU21D;54120;53.504;49.426;2023-07-13T13:38:13;23.44;41.08
67192;HTU21D;54120;53.504;49.426;2023-07-13T13:40:41;23.44;41.61
67192;HTU21D;54120;53.504;49.426;2023-07-13T13:43:20;23.26;41.64
67192;HTU21D;54120;53.504;49.426;2023-07-13T13:45:47;23.20;40.02
67192;HTU21D;54120;53.504;49.426;2023-07-13T13:48:19;22.99;42.09
67192;HTU21D;54120;53.504;49.426;2023-07-13T13:50:47;22.99;42.10
67192;HTU21D;54120;53.504;49.426;2023-07-13T13:53:14;23.32;43.48
67192;HTU21D;54120;53.504;49.426;2023-07-13T13:55:41;23.15;43.79
67192;HTU21D;54120;53.504;49.426;2023-07-13T13:58:09;23.31;44.22
67192;HTU21D;54120;53.504;49.426;2023-07-13T14:00:37;23.12;45.31
67192;HTU21D;54120;53.504;49.426;2023-07-13T14:03:04;22.93;46.31
67192;HTU21D;54120;53.504;49.426;2023-07-13T14:05:32;22.66;45.38
67192;HTU21D;54120;53.504;49.426;2023-07-13T14:07:59;22.41;46.68
67192;HTU21D;54120;53.504;49.426;2023-07-13T14:10:26;22.66;46.19
67192;HTU21D;54120;53.504;49.426;2023-07-13T14:12:54;22.90;45.07
67192;HTU21D;54120;53.504;49.426;2023-07-13T14:15:25;23.11;45.80
67192;HTU21D;54120;53.504;49.426;2023-07-13T14:17:54;23.07;45.29
67192;HTU21D;54120;53.504;49.426;2023-07-13T14:20:23;22.90;46.17
67192;HTU21D;54120;53.504;49.426;2023-07-13T14:22:50;22.65;47.41
67192;HTU21D;54120;53.504;49.426;2023-07-13T14:25:18;22.40;49.20
67192;HTU21D;54120;53.504;49.426;2023-07-13T14:27:48;22.20;48.26
67192;HTU21D;54120;53.504;49.426;2023-07-13T14:30:18;22.08;48.66
67192;HTU21D;54120;53.504;49.426;2023-07-13T14:32:44;21.90;49.76
67192;HTU21D;54120;53.504;49.426;2023-07-13T14:35:12;21.74;50.50
67192;HTU21D;54120;53.504;49.426;2023-07-13T14:37:40;21.69;51.78
67192;HTU21D;54120;53.504;49.426;2023-07-13T14:40:13;21.61;52.38
67192;HTU21D;54120;53.504;49.426;2023-07-13T14:42:40;21.58;52.63
67192;HTU21D;54120;53.504;49.426;2023-07-13T14:45:15;21.51;52.75
67192;HTU21D;54120;53.504;49.426;2023-07-13T14:47:43;21.21;54.15
67192;HTU21D;54120;53.504;49.426;2023-07-13T14:50:20;21.11;53.97
67192;HTU21D;54120;53.504;49.426;2023-07-13T14:52:48;21.04;55.49
67192;HTU21D;54120;53.504;49.426;2023-07-13T14:55:18;21.03;55.62
67192;HTU21D;54120;53.504;49.426;2023-07-13T14:57:45;21.03;53.72
67192;HTU21D;54120;53.504;49.426;2023-07-13T15:00:17;20.94;55.16
67192;HTU21D;54120;53.504;49.426;2023-07-13T15:02:48;20.88;55.45
67192;HTU21D;54120;53.504;49.426;2023-07-13T15:05:20;20.85;54.65
67192;HTU21D;54120;53.504;49.426;2023-07-13T15:07:49;20.88;55.52
67192;HTU21D;54120;53.504;49.426;2023-07-13T15:10:21;20.85;55.37
67192;HTU21D;54120;53.504;49.426;2023-07-13T15:12:50;20.84;55.26
67192;HTU21D;54120;53.504;49.426;2023-07-13T15:15:17;20.77;54.07
67192;HTU21D;54120;53.504;49.426;2023-07-13T15:17:45;20.77;55.08
67192;HTU21D;54120;53.504;49.426;2023-07-13T15:20:19;20.79;54.77
67192;HTU21D;54120;53.504;49.426;2023-07-13T15:22:48;20.76;54.50
67192;HTU21D;54120;53.504;49.426;2023-07-13T15:25:17;20.68;54.78
67192;HTU21D;54120;53.504;49.426;2023-07-13T15:27:44;20.70;55.08
67192;HTU21D;54120;53.504;49.426;2023-07-13T15:30:11;20.68;55.07
67192;HTU21D;54120;53.504;49.426;2023-07-13T15:32:38;20.63;55.90
67192;HTU21D;54120;53.504;49.426;2023-07-13T15:35:13;20.68;56.12
67192;HTU21D;54120;53.504;49.426;2023-07-13T15:37:40;20.55;56.89
67192;HTU21D;54120;53.504;49.426;2023-07-13T15:40:07;20.51;56.89
67192;HTU21D;54120;53.504;49.426;2023-07-13T15:42:33;20.41;56.90
67192;HTU21D;54120;53.504;49.426;2023-07-13T15:45:02;20.36;57.35
67192;HTU21D;54120;53.504;49.426;2023-07-13T15:47:29;20.34;57.82
67192;HTU21D;54120;53.504;49.426;2023-07-13T15:49:55;20.31;58.29
67192;HTU21D;54120;53.504;49.426;2023-07-13T15:52:23;20.31;58.22
67192;HTU21D;54120;53.504;49.426;2023-07-13T15:54:50;20.30;57.43
67192;HTU21D;54120;53.504;49.426;2023-07-13T15:57:17;20.28;57.49
67192;HTU21D;54120;53.504;49.426;2023-07-13T15:59:45;20.21;57.30
67192;HTU21D;54120;53.504;49.426;2023-07-13T16:02:19;20.16;57.96
67192;HTU21D;54120;53.504;49.426;2023-07-13T16:04:46;20.14;57.96
67192;HTU21D;54120;53.504;49.426;2023-07-13T16:07:15;20.14;58.37
67192;HTU21D;54120;53.504;49.426;2023-07-13T16:09:45;20.01;61.45
67192;HTU21D;54120;53.504;49.426;2023-07-13T16:12:13;19.84;61.09